sensor_id;sensor_type;location;lat;lon;timestamp;P1;durP1;ratioP1;P2;durP2;ratioP2
6953;SDS011;3516;47.980;8.808;2023-04-15T05:46:40;3.97;;;3.67;;
6953;SDS011;3516;47.980;8.808;2023-04-15T05:49:07;3.85;;;3.55;;
6953;SDS011;3516;47.980;8.808;2023-04-15T05:51:33;4.50;;;4.00;;
6953;SDS011;3516;47.980;8.808;2023-04-15T05:54:01;3.58;;;3.28;;
6953;SDS011;3516;47.980;8.808;2023-04-15T05:56:27;3.92;;;3.17;;
6953;SDS011;3516;47.980;8.808;2023-04-15T05:58:54;2.90;;;2.70;;
6953;SDS011;3516;47.980;8.808;2023-04-15T06:01:21;2.95;;;2.75;;
6953;SDS011;3516;47.980;8.808;2023-04-15T06:03:49;3.25;;;2.95;;
6953;SDS011;3516;47.980;8.808;2023-04-15T06:06:16;3.67;;;2.30;;
6953;SDS011;3516;47.980;8.808;2023-04-15T06:08:42;2.30;;;2.20;;
6953;SDS011;3516;47.980;8.808;2023-04-15T06:11:09;2.53;;;2.38;;
6953;SDS011;3516;47.980;8.808;2023-04-15T06:13:36;2.20;;;2.08;;
6953;SDS011;3516;47.980;8.808;2023-04-15T06:16:02;2.50;;;2.30;;
6953;SDS011;3516;47.980;8.808;2023-04-15T06:18:29;2.05;;;1.95;;
6953;SDS011;3516;47.980;8.808;2023-04-15T06:20:57;3.05;;;2.78;;
6953;SDS011;3516;47.980;8.808;2023-04-15T06:23:24;2.15;;;2.05;;
6953;SDS011;3516;47.980;8.808;2023-04-15T06:25:51;3.13;;;2.88;;
6953;SDS011;3516;47.980;8.808;2023-04-15T06:28:18;3.55;;;2.72;;
6953;SDS011;3516;47.980;8.808;2023-04-15T06:30:45;3.00;;;2.33;;
6953;SDS011;3516;47.980;8.808;2023-04-15T06:33:11;3.28;;;2.80;;
6953;SDS011;3516;47.980;8.808;2023-04-15T06:35:38;2.92;;;2.65;;
6953;SDS011;3516;47.980;8.808;2023-04-15T06:38:06;3.05;;;2.75;;
6953;SDS011;3516;47.980;8.808;2023-04-15T06:40:33;2.70;;;2.20;;
6953;SDS011;3516;47.980;8.808;2023-04-15T06:43:00;2.45;;;2.25;;
6953;SDS011;3516;47.980;8.808;2023-04-15T06:45:26;2.75;;;2.53;;
6953;SDS011;3516;47.980;8.808;2023-04-15T06:47:53;2.40;;;2.30;;
6953;SDS011;3516;47.980;8.808;2023-04-15T06:50:20;2.70;;;2.17;;
6953;SDS011;3516;47.980;8.808;2023-04-15T06:52:46;4.70;;;2.58;;
6953;SDS011;3516;47.980;8.808;2023-04-15T06:55:14;2.83;;;2.63;;
6953;SDS011;3516;47.980;8.808;2023-04-15T06:57:41;4.47;;;2.78;;
6953;SDS011;3516;47.980;8.808;2023-04-15T07:00:09;4.05;;;3.05;;
6953;SDS011;3516;47.980;8.808;2023-04-15T07:02:38;3.05;;;2.83;;
6953;SDS011;3516;47.980;8.808;2023-04-15T07:05:06;2.78;;;2.53;;
6953;SDS011;3516;47.980;8.808;2023-04-15T07:07:34;2.50;;;2.30;;
6953;SDS011;3516;47.980;8.808;2023-04-15T07:10:01;3.03;;;2.65;;
6953;SDS011;3516;47.980;8.808;2023-04-15T07:12:29;3.38;;;3.00;;
6953;SDS011;3516;47.980;8.808;2023-04-15T07:14:56;2.60;;;2.40;;
6953;SDS011;3516;47.980;8.808;2023-04-15T07:17:22;2.50;;;2.30;;
6953;SDS011;3516;47.980;8.808;2023-04-15T07:19:49;1.85;;;1.75;;
6953;SDS011;3516;47.980;8.808;2023-04-15T07:22:16;2.83;;;2.47;;
6953;SDS011;3516;47.980;8.808;2023-04-15T07:24:43;2.65;;;2.40;;
6953;SDS011;3516;47.980;8.808;2023-04-15T07:27:11;3.03;;;2.20;;
6953;SDS011;3516;47.980;8.808;2023-04-15T07:29:39;3.17;;;1.95;;
6953;SDS011;3516;47.980;8.808;2023-04-15T07:32:07;1.70;;;1.60;;
6953;SDS011;3516;47.980;8.808;2023-04-15T07:34:35;2.72;;;1.90;;
6953;SDS011;3516;47.980;8.808;2023-04-15T07:37:03;2.33;;;2.00;;
6953;SDS011;3516;47.980;8.808;2023-04-15T07:39:30;2.83;;;1.95;;
6953;SDS011;3516;47.980;8.808;2023-04-15T07:41:57;2.85;;;1.90;;
6953;SDS011;3516;47.980;8.808;2023-04-15T07:44:25;1.90;;;1.80;;
6953;SDS011;3516;47.980;8.808;2023-04-15T07:46:53;4.40;;;2.20;;
6953;SDS011;3516;47.980;8.808;2023-04-15T07:49:20;3.80;;;2.58;;
6953;SDS011;3516;47.980;8.808;2023-04-15T07:51:47;3.60;;;2.90;;
6953;SDS011;3516;47.980;8.808;2023-04-15T07:54:14;4.07;;;3.10;;
6953;SDS011;3516;47.980;8.808;2023-04-15T07:56:40;4.05;;;3.08;;
6953;SDS011;3516;47.980;8.808;2023-04-15T07:59:07;4.45;;;3.00;;
6953;SDS011;3516;47.980;8.808;2023-04-15T08:01:35;5.18;;;3.10;;
6953;SDS011;3516;47.980;8.808;2023-04-15T08:04:04;2.90;;;2.60;;
6953;SDS011;3516;47.980;8.808;2023-04-15T08:06:32;2.38;;;2.10;;
6953;SDS011;3516;47.980;8.808;2023-04-15T08:09:00;1.75;;;1.65;;
6953;SDS011;3516;47.980;8.808;2023-04-15T08:11:28;3.08;;;1.95;;
6953;SDS011;3516;47.980;8.808;2023-04-15T08:13:58;1.67;;;1.58;;
6953;SDS011;3516;47.980;8.808;2023-04-15T08:16:25;1.63;;;1.38;;
6953;SDS011;3516;47.980;8.808;2023-04-15T08:18:54;4.00;;;1.40;;
6953;SDS011;3516;47.980;8.808;2023-04-15T08:21:24;3.55;;;1.55;;
6953;SDS011;3516;47.980;8.808;2023-04-15T08:23:54;1.90;;;1.45;;
6953;SDS011;3516;47.980;8.808;2023-04-15T08:26:22;1.33;;;1.23;;
6953;SDS011;3516;47.980;8.808;2023-04-15T08:28:53;1.13;;;1.13;;
6953;SDS011;3516;47.980;8.808;2023-04-15T08:31:19;1.40;;;1.30;;
6953;SDS011;3516;47.980;8.808;2023-04-15T08:33:46;2.85;;;1.35;;
6953;SDS011;3516;47.980;8.808;2023-04-15T08:36:13;1.40;;;1.30;;
6953;SDS011;3516;47.980;8.808;2023-04-15T08:38:43;2.10;;;1.05;;
6953;SDS011;3516;47.980;8.808;2023-04-15T08:41:11;1.20;;;1.10;;
6953;SDS011;3516;47.980;8.808;2023-04-15T08:43:46;1.40;;;1.30;;
6953;SDS011;3516;47.980;8.808;2023-04-15T08:46:17;2.92;;;1.00;;
6953;SDS011;3516;47.980;8.808;2023-04-15T08:48:46;2.13;;;0.95;;
6953;SDS011;3516;47.980;8.808;2023-04-15T08:51:15;2.03;;;1.10;;
6953;SDS011;3516;47.980;8.808;2023-04-15T08:53:44;1.38;;;0.85;;
6953;SDS011;3516;47.980;8.808;2023-04-15T08:56:13;1.50;;;1.40;;
6953;SDS011;3516;47.980;8.808;2023-04-15T08:58:40;3.92;;;1.30;;
6953;SDS011;3516;47.980;8.808;2023-04-15T09:01:09;3.45;;;1.40;;
6953;SDS011;3516;47.980;8.808;2023-04-15T09:03:38;2.28;;;1.15;;
6953;SDS011;3516;47.980;8.808;2023-04-15T09:06:05;1.02;;;0.93;;
6953;SDS011;3516;47.980;8.808;2023-04-15T09:08:32;4.13;;;1.15;;
6953;SDS011;3516;47.980;8.808;2023-04-15T09:11:01;1.80;;;1.17;;
6953;SDS011;3516;47.980;8.808;2023-04-15T09:13:29;0.77;;;0.77;;
6953;SDS011;3516;47.980;8.808;2023-04-15T09:15:56;1.75;;;1.13;;
6953;SDS011;3516;47.980;8.808;2023-04-15T09:18:27;1.75;;;0.93;;
6953;SDS011;3516;47.980;8.808;2023-04-15T09:20:55;2.05;;;0.80;;
6953;SDS011;3516;47.980;8.808;2023-04-15T09:23:29;2.25;;;0.98;;
6953;SDS011;3516;47.980;8.808;2023-04-15T09:25:57;0.80;;;0.75;;
6953;SDS011;3516;47.980;8.808;2023-04-15T09:28:25;2.95;;;0.80;;
6953;SDS011;3516;47.980;8.808;2023-04-15T09:30:56;2.55;;;0.90;;
6953;SDS011;3516;47.980;8.808;2023-04-15T09:33:24;1.85;;;1.15;;
6953;SDS011;3516;47.980;8.808;2023-04-15T09:35:55;1.45;;;0.80;;
6953;SDS011;3516;47.980;8.808;2023-04-15T09:38:23;0.80;;;0.80;;
6953;SDS011;3516;47.980;8.808;2023-04-15T09:40:50;0.95;;;0.85;;
6953;SDS011;3516;47.980;8.808;2023-04-15T09:43:16;1.85;;;0.68;;
6953;SDS011;3516;47.980;8.808;2023-04-15T09:45:53;2.20;;;0.80;;
6953;SDS011;3516;47.980;8.808;2023-04-15T09:48:20;0.70;;;0.70;;
6953;SDS011;3516;47.980;8.808;2023-04-15T09:50:50;1.23;;;0.80;;
6953;SDS011;3516;47.980;8.808;2023-04-15T09:53:18;0.80;;;0.70;;
6953;SDS011;3516;47.980;8.808;2023-04-15T09:55:48;0.70;;;0.70;;
6953;SDS011;3516;47.980;8.808;2023-04-15T09:58:19;0.85;;;0.80;;
6953;SDS011;3516;47.980;8.808;2023-04-15T10:00:46;2.92;;;1.20;;
6953;SDS011;3516;47.980;8.808;2023-04-15T10:03:17;2.38;;;1.60;;
6953;SDS011;3516;47.980;8.808;2023-04-15T10:05:46;4.93;;;1.75;;
6953;SDS011;3516;47.980;8.808;2023-04-15T10:08:16;1.48;;;1.25;;
6953;SDS011;3516;47.980;8.808;2023-04-15T10:10:44;2.05;;;1.20;;
6953;SDS011;3516;47.980;8.808;2023-04-15T10:13:12;1.88;;;0.85;;
6953;SDS011;3516;47.980;8.808;2023-04-15T10:15:41;0.88;;;0.77;;
6953;SDS011;3516;47.980;8.808;2023-04-15T10:18:11;1.58;;;0.80;;
6953;SDS011;3516;47.980;8.808;2023-04-15T10:20:42;1.02;;;0.63;;
6953;SDS011;3516;47.980;8.808;2023-04-15T10:23:09;1.92;;;0.60;;
6953;SDS011;3516;47.980;8.808;2023-04-15T10:25:37;0.95;;;0.70;;
6953;SDS011;3516;47.980;8.808;2023-04-15T10:28:05;1.00;;;0.90;;
6953;SDS011;3516;47.980;8.808;2023-04-15T10:30:33;1.13;;;1.00;;
6953;SDS011;3516;47.980;8.808;2023-04-15T10:33:01;1.52;;;0.80;;
6953;SDS011;3516;47.980;8.808;2023-04-15T10:35:29;0.77;;;0.77;;
6953;SDS011;3516;47.980;8.808;2023-04-15T10:37:59;1.30;;;1.20;;
6953;SDS011;3516;47.980;8.808;2023-04-15T10:40:26;2.35;;;0.90;;
6953;SDS011;3516;47.980;8.808;2023-04-15T10:42:56;1.73;;;1.00;;
6953;SDS011;3516;47.980;8.808;2023-04-15T10:45:27;1.83;;;1.10;;
6953;SDS011;3516;47.980;8.808;2023-04-15T10:48:00;0.93;;;0.90;;
6953;SDS011;3516;47.980;8.808;2023-04-15T10:50:29;0.73;;;0.70;;
6953;SDS011;3516;47.980;8.808;2023-04-15T10:52:56;1.77;;;0.70;;
6953;SDS011;3516;47.980;8.808;2023-04-15T10:55:30;1.10;;;1.00;;
6953;SDS011;3516;47.980;8.808;2023-04-15T10:57:58;1.15;;;1.02;;
6953;SDS011;3516;47.980;8.808;2023-04-15T11:00:27;1.45;;;1.35;;
6953;SDS011;3516;47.980;8.808;2023-04-15T11:02:55;2.08;;;1.50;;
6953;SDS011;3516;47.980;8.808;2023-04-15T11:08:15;1.42;;;1.15;;
6953;SDS011;3516;47.980;8.808;2023-04-15T11:10:52;1.85;;;1.00;;
6953;SDS011;3516;47.980;8.808;2023-04-15T11:13:20;1.15;;;1.08;;
6953;SDS011;3516;47.980;8.808;2023-04-15T11:15:59;2.63;;;1.50;;
6953;SDS011;3516;47.980;8.808;2023-04-15T11:18:31;1.40;;;1.30;;
6953;SDS011;3516;47.980;8.808;2023-04-15T11:20:59;1.27;;;1.10;;
6953;SDS011;3516;47.980;8.808;2023-04-15T11:23:30;1.98;;;1.30;;
6953;SDS011;3516;47.980;8.808;2023-04-15T11:25:58;1.38;;;1.27;;
6953;SDS011;3516;47.980;8.808;2023-04-15T11:28:27;1.90;;;1.30;;
6953;SDS011;3516;47.980;8.808;2023-04-15T11:30:55;1.20;;;1.10;;
6953;SDS011;3516;47.980;8.808;2023-04-15T11:33:23;3.88;;;1.67;;
6953;SDS011;3516;47.980;8.808;2023-04-15T11:35:51;3.58;;;2.47;;
6953;SDS011;3516;47.980;8.808;2023-04-15T11:38:19;2.75;;;2.20;;
6953;SDS011;3516;47.980;8.808;2023-04-15T11:40:47;2.42;;;1.85;;
6953;SDS011;3516;47.980;8.808;2023-04-15T11:43:16;1.45;;;1.35;;
6953;SDS011;3516;47.980;8.808;2023-04-15T11:45:48;1.40;;;1.23;;
6953;SDS011;3516;47.980;8.808;2023-04-15T11:48:17;1.50;;;1.40;;
6953;SDS011;3516;47.980;8.808;2023-04-15T11:50:44;0.85;;;0.82;;
6953;SDS011;3516;47.980;8.808;2023-04-15T11:53:12;1.40;;;1.23;;
6953;SDS011;3516;47.980;8.808;2023-04-15T11:55:42;1.35;;;0.80;;
6953;SDS011;3516;47.980;8.808;2023-04-15T11:58:12;0.80;;;0.80;;
6953;SDS011;3516;47.980;8.808;2023-04-15T12:00:45;1.75;;;1.10;;
6953;SDS011;3516;47.980;8.808;2023-04-15T12:03:13;0.80;;;0.80;;
6953;SDS011;3516;47.980;8.808;2023-04-15T12:06:02;1.38;;;0.90;;
6953;SDS011;3516;47.980;8.808;2023-04-15T12:11:27;0.80;;;0.80;;
6953;SDS011;3516;47.980;8.808;2023-04-15T12:13:57;1.30;;;0.80;;
6953;SDS011;3516;47.980;8.808;2023-04-15T12:16:27;2.47;;;1.45;;
6953;SDS011;3516;47.980;8.808;2023-04-15T12:18:55;1.48;;;1.10;;
6953;SDS011;3516;47.980;8.808;2023-04-15T12:21:23;1.13;;;1.13;;
6953;SDS011;3516;47.980;8.808;2023-04-15T12:23:51;1.63;;;1.10;;
6953;SDS011;3516;47.980;8.808;2023-04-15T12:26:24;4.32;;;1.63;;
6953;SDS011;3516;47.980;8.808;2023-04-15T12:28:52;3.47;;;1.90;;
6953;SDS011;3516;47.980;8.808;2023-04-15T12:31:20;3.75;;;1.38;;
6953;SDS011;3516;47.980;8.808;2023-04-15T12:33:47;2.28;;;1.00;;
6953;SDS011;3516;47.980;8.808;2023-04-15T12:36:15;3.45;;;1.23;;
6953;SDS011;3516;47.980;8.808;2023-04-15T12:38:41;1.83;;;1.20;;
6953;SDS011;3516;47.980;8.808;2023-04-15T12:41:09;2.55;;;1.17;;
6953;SDS011;3516;47.980;8.808;2023-04-15T12:43:39;1.20;;;1.10;;
6953;SDS011;3516;47.980;8.808;2023-04-15T12:46:07;0.82;;;0.82;;
6953;SDS011;3516;47.980;8.808;2023-04-15T12:48:36;1.20;;;0.95;;
6953;SDS011;3516;47.980;8.808;2023-04-15T12:51:05;0.70;;;0.70;;
6953;SDS011;3516;47.980;8.808;2023-04-15T12:53:32;0.88;;;0.82;;
6953;SDS011;3516;47.980;8.808;2023-04-15T12:55:58;1.67;;;0.80;;
6953;SDS011;3516;47.980;8.808;2023-04-15T12:58:25;0.90;;;0.70;;
6953;SDS011;3516;47.980;8.808;2023-04-15T13:00:52;0.68;;;0.68;;
6953;SDS011;3516;47.980;8.808;2023-04-15T13:03:19;0.65;;;0.60;;
6953;SDS011;3516;47.980;8.808;2023-04-15T13:05:47;0.70;;;0.70;;
6953;SDS011;3516;47.980;8.808;2023-04-15T13:08:14;0.68;;;0.50;;
6953;SDS011;3516;47.980;8.808;2023-04-15T13:10:40;2.15;;;0.75;;
6953;SDS011;3516;47.980;8.808;2023-04-15T13:13:07;1.95;;;1.02;;
6953;SDS011;3516;47.980;8.808;2023-04-15T13:15:34;3.85;;;0.70;;
6953;SDS011;3516;47.980;8.808;2023-04-15T13:18:01;1.92;;;0.90;;
6953;SDS011;3516;47.980;8.808;2023-04-15T13:20:27;1.30;;;0.80;;
6953;SDS011;3516;47.980;8.808;2023-04-15T13:22:55;0.55;;;0.50;;
6953;SDS011;3516;47.980;8.808;2023-04-15T13:25:22;2.15;;;0.85;;
6953;SDS011;3516;47.980;8.808;2023-04-15T13:27:50;0.75;;;0.75;;
6953;SDS011;3516;47.980;8.808;2023-04-15T13:30:16;0.65;;;0.60;;
6953;SDS011;3516;47.980;8.808;2023-04-15T13:32:43;3.83;;;0.68;;
6953;SDS011;3516;47.980;8.808;2023-04-15T13:35:10;2.80;;;0.60;;
6953;SDS011;3516;47.980;8.808;2023-04-15T13:37:36;1.25;;;0.75;;
6953;SDS011;3516;47.980;8.808;2023-04-15T13:40:06;0.82;;;0.82;;
6953;SDS011;3516;47.980;8.808;2023-04-15T13:42:33;0.82;;;0.82;;
6953;SDS011;3516;47.980;8.808;2023-04-15T13:45:00;1.25;;;0.70;;
6953;SDS011;3516;47.980;8.808;2023-04-15T13:47:27;1.95;;;0.80;;
6953;SDS011;3516;47.980;8.808;2023-04-15T13:49:53;0.75;;;0.75;;
6953;SDS011;3516;47.980;8.808;2023-04-15T13:52:20;1.10;;;0.80;;
6953;SDS011;3516;47.980;8.808;2023-04-15T13:54:47;0.90;;;0.80;;
6953;SDS011;3516;47.980;8.808;2023-04-15T13:57:15;0.85;;;0.85;;
6953;SDS011;3516;47.980;8.808;2023-04-15T13:59:42;3.05;;;0.95;;
6953;SDS011;3516;47.980;8.808;2023-04-15T14:02:09;1.60;;;0.85;;
6953;SDS011;3516;47.980;8.808;2023-04-15T14:04:36;0.82;;;0.80;;
6953;SDS011;3516;47.980;8.808;2023-04-15T14:07:03;0.82;;;0.80;;
6953;SDS011;3516;47.980;8.808;2023-04-15T14:09:30;0.80;;;0.80;;
6953;SDS011;3516;47.980;8.808;2023-04-15T14:11:56;1.80;;;1.00;;
6953;SDS011;3516;47.980;8.808;2023-04-15T14:14:25;1.50;;;1.02;;
6953;SDS011;3516;47.980;8.808;2023-04-15T14:16:52;1.73;;;0.90;;
6953;SDS011;3516;47.980;8.808;2023-04-15T14:19:20;1.63;;;1.20;;
6953;SDS011;3516;47.980;8.808;2023-04-15T14:21:46;2.05;;;0.93;;
6953;SDS011;3516;47.980;8.808;2023-04-15T14:24:13;1.35;;;0.95;;
6953;SDS011;3516;47.980;8.808;2023-04-15T14:26:40;1.95;;;0.82;;
6953;SDS011;3516;47.980;8.808;2023-04-15T14:29:08;1.13;;;1.00;;
6953;SDS011;3516;47.980;8.808;2023-04-15T14:31:36;1.05;;;0.70;;
6953;SDS011;3516;47.980;8.808;2023-04-15T14:34:04;3.05;;;1.20;;
6953;SDS011;3516;47.980;8.808;2023-04-15T14:36:30;2.08;;;1.13;;
6953;SDS011;3516;47.980;8.808;2023-04-15T14:38:57;1.15;;;1.08;;
6953;SDS011;3516;47.980;8.808;2023-04-15T14:41:24;2.22;;;0.90;;
6953;SDS011;3516;47.980;8.808;2023-04-15T14:43:51;0.85;;;0.85;;
6953;SDS011;3516;47.980;8.808;2023-04-15T14:46:18;2.85;;;0.88;;
6953;SDS011;3516;47.980;8.808;2023-04-15T14:48:46;1.23;;;1.02;;
6953;SDS011;3516;47.980;8.808;2023-04-15T14:51:12;5.32;;;4.82;;
6953;SDS011;3516;47.980;8.808;2023-04-15T14:53:40;4.38;;;2.67;;
6953;SDS011;3516;47.980;8.808;2023-04-15T14:56:07;1.50;;;1.40;;
6953;SDS011;3516;47.980;8.808;2023-04-15T14:58:33;1.20;;;1.00;;
6953;SDS011;3516;47.980;8.808;2023-04-15T15:01:00;2.38;;;0.90;;
6953;SDS011;3516;47.980;8.808;2023-04-15T15:03:28;1.83;;;0.88;;
6953;SDS011;3516;47.980;8.808;2023-04-15T15:05:56;2.42;;;0.88;;
6953;SDS011;3516;47.980;8.808;2023-04-15T15:08:25;2.33;;;1.02;;
6953;SDS011;3516;47.980;8.808;2023-04-15T15:10:55;2.53;;;1.13;;
6953;SDS011;3516;47.980;8.808;2023-04-15T15:13:22;1.58;;;0.95;;
6953;SDS011;3516;47.980;8.808;2023-04-15T15:15:49;2.55;;;1.33;;
6953;SDS011;3516;47.980;8.808;2023-04-15T15:18:17;2.42;;;0.95;;
6953;SDS011;3516;47.980;8.808;2023-04-15T15:20:44;0.93;;;0.82;;
6953;SDS011;3516;47.980;8.808;2023-04-15T15:23:12;1.20;;;0.95;;
6953;SDS011;3516;47.980;8.808;2023-04-15T15:25:38;1.92;;;0.73;;
6953;SDS011;3516;47.980;8.808;2023-04-15T15:28:05;1.08;;;1.00;;
6953;SDS011;3516;47.980;8.808;2023-04-15T15:30:33;1.08;;;0.90;;
6953;SDS011;3516;47.980;8.808;2023-04-15T15:33:00;1.77;;;1.02;;
6953;SDS011;3516;47.980;8.808;2023-04-15T15:35:28;1.55;;;1.20;;
6953;SDS011;3516;47.980;8.808;2023-04-15T15:37:56;1.85;;;1.23;;
6953;SDS011;3516;47.980;8.808;2023-04-15T15:40:25;2.17;;;1.00;;
6953;SDS011;3516;47.980;8.808;2023-04-15T15:42:53;3.22;;;1.70;;
6953;SDS011;3516;47.980;8.808;2023-04-15T15:45:20;1.58;;;1.08;;
6953;SDS011;3516;47.980;8.808;2023-04-15T15:47:48;2.55;;;1.17;;
6953;SDS011;3516;47.980;8.808;2023-04-15T15:50:16;3.90;;;1.02;;
6953;SDS011;3516;47.980;8.808;2023-04-15T15:52:44;1.48;;;1.10;;
6953;SDS011;3516;47.980;8.808;2023-04-15T15:55:12;1.38;;;1.10;;
6953;SDS011;3516;47.980;8.808;2023-04-15T15:57:42;2.47;;;1.08;;
6953;SDS011;3516;47.980;8.808;2023-04-15T16:00:09;3.75;;;1.42;;
6953;SDS011;3516;47.980;8.808;2023-04-15T16:02:37;1.90;;;0.95;;
6953;SDS011;3516;47.980;8.808;2023-04-15T16:05:04;2.63;;;1.42;;
6953;SDS011;3516;47.980;8.808;2023-04-15T16:07:32;1.05;;;1.02;;
6953;SDS011;3516;47.980;8.808;2023-04-15T16:09:59;2.63;;;1.00;;
6953;SDS011;3516;47.980;8.808;2023-04-15T16:12:26;2.00;;;1.10;;
6953;SDS011;3516;47.980;8.808;2023-04-15T16:14:54;1.15;;;1.05;;
6953;SDS011;3516;47.980;8.808;2023-04-15T16:17:21;1.02;;;0.90;;
6953;SDS011;3516;47.980;8.808;2023-04-15T16:19:48;1.27;;;1.00;;
6953;SDS011;3516;47.980;8.808;2023-04-15T16:22:15;2.22;;;1.02;;
6953;SDS011;3516;47.980;8.808;2023-04-15T16:24:41;1.80;;;0.98;;
6953;SDS011;3516;47.980;8.808;2023-04-15T16:27:08;3.33;;;1.80;;
6953;SDS011;3516;47.980;8.808;2023-04-15T16:29:40;2.33;;;1.38;;
6953;SDS011;3516;47.980;8.808;2023-04-15T16:32:08;1.75;;;1.30;;
6953;SDS011;3516;47.980;8.808;2023-04-15T16:34:34;3.42;;;1.30;;
6953;SDS011;3516;47.980;8.808;2023-04-15T16:37:03;1.55;;;1.08;;
6953;SDS011;3516;47.980;8.808;2023-04-15T16:39:30;3.72;;;1.30;;
6953;SDS011;3516;47.980;8.808;2023-04-15T16:41:56;1.73;;;1.40;;
6953;SDS011;3516;47.980;8.808;2023-04-15T16:44:25;4.78;;;1.83;;
6953;SDS011;3516;47.980;8.808;2023-04-15T16:46:52;3.63;;;1.83;;
6953;SDS011;3516;47.980;8.808;2023-04-15T16:49:20;1.67;;;1.25;;
6953;SDS011;3516;47.980;8.808;2023-04-15T16:51:46;2.53;;;1.58;;
6953;SDS011;3516;47.980;8.808;2023-04-15T16:54:13;2.28;;;1.50;;
6953;SDS011;3516;47.980;8.808;2023-04-15T16:56:40;3.15;;;1.95;;
6953;SDS011;3516;47.980;8.808;2023-04-15T16:59:08;3.83;;;2.00;;
6953;SDS011;3516;47.980;8.808;2023-04-15T17:01:34;3.17;;;1.88;;
6953;SDS011;3516;47.980;8.808;2023-04-15T17:04:01;3.35;;;1.73;;
6953;SDS011;3516;47.980;8.808;2023-04-15T17:06:30;2.70;;;1.40;;
6953;SDS011;3516;47.980;8.808;2023-04-15T17:08:57;4.28;;;1.80;;
6953;SDS011;3516;47.980;8.808;2023-04-15T17:11:24;5.90;;;2.17;;
6953;SDS011;3516;47.980;8.808;2023-04-15T17:13:52;3.90;;;1.85;;
6953;SDS011;3516;47.980;8.808;2023-04-15T17:16:18;5.07;;;2.28;;
6953;SDS011;3516;47.980;8.808;2023-04-15T17:18:48;2.97;;;2.22;;
6953;SDS011;3516;47.980;8.808;2023-04-15T17:21:15;2.92;;;1.92;;
6953;SDS011;3516;47.980;8.808;2023-04-15T17:23:43;2.78;;;2.00;;
6953;SDS011;3516;47.980;8.808;2023-04-15T17:26:10;2.97;;;1.70;;
6953;SDS011;3516;47.980;8.808;2023-04-15T17:28:37;3.67;;;1.98;;
6953;SDS011;3516;47.980;8.808;2023-04-15T17:31:04;1.60;;;1.50;;
6953;SDS011;3516;47.980;8.808;2023-04-15T17:33:31;1.98;;;1.50;;
6953;SDS011;3516;47.980;8.808;2023-04-15T17:35:58;3.63;;;1.85;;
6953;SDS011;3516;47.980;8.808;2023-04-15T17:38:25;4.30;;;2.15;;
6953;SDS011;3516;47.980;8.808;2023-04-15T17:40:53;5.43;;;1.85;;
6953;SDS011;3516;47.980;8.808;2023-04-15T17:43:19;4.50;;;2.30;;
6953;SDS011;3516;47.980;8.808;2023-04-15T17:45:46;1.63;;;1.50;;
6953;SDS011;3516;47.980;8.808;2023-04-15T17:48:13;1.95;;;1.73;;
6953;SDS011;3516;47.980;8.808;2023-04-15T17:50:40;2.67;;;1.83;;
6953;SDS011;3516;47.980;8.808;2023-04-15T17:53:07;2.95;;;1.92;;
6953;SDS011;3516;47.980;8.808;2023-04-15T17:55:33;2.90;;;1.80;;
6953;SDS011;3516;47.980;8.808;2023-04-15T17:58:02;5.38;;;1.90;;
6953;SDS011;3516;47.980;8.808;2023-04-15T18:00:28;1.58;;;1.48;;
6953;SDS011;3516;47.980;8.808;2023-04-15T18:02:55;1.70;;;1.58;;
6953;SDS011;3516;47.980;8.808;2023-04-15T18:05:22;3.13;;;1.88;;
6953;SDS011;3516;47.980;8.808;2023-04-15T18:07:49;1.77;;;1.25;;
6953;SDS011;3516;47.980;8.808;2023-04-15T18:10:16;2.58;;;1.65;;
6953;SDS011;3516;47.980;8.808;2023-04-15T18:12:43;1.42;;;1.27;;
6953;SDS011;3516;47.980;8.808;2023-04-15T18:15:11;3.88;;;1.63;;
6953;SDS011;3516;47.980;8.808;2023-04-15T18:17:39;3.90;;;1.95;;
6953;SDS011;3516;47.980;8.808;2023-04-15T18:20:06;5.38;;;1.88;;
6953;SDS011;3516;47.980;8.808;2023-04-15T18:22:33;2.70;;;1.70;;
6953;SDS011;3516;47.980;8.808;2023-04-15T18:25:00;5.45;;;1.80;;
6953;SDS011;3516;47.980;8.808;2023-04-15T18:27:28;1.83;;;1.73;;
6953;SDS011;3516;47.980;8.808;2023-04-15T18:29:55;1.80;;;1.70;;
6953;SDS011;3516;47.980;8.808;2023-04-15T18:32:23;1.80;;;1.70;;
6953;SDS011;3516;47.980;8.808;2023-04-15T18:34:52;4.78;;;2.08;;
6953;SDS011;3516;47.980;8.808;2023-04-15T18:37:20;6.82;;;2.53;;
6953;SDS011;3516;47.980;8.808;2023-04-15T18:39:47;2.97;;;2.42;;
6953;SDS011;3516;47.980;8.808;2023-04-15T18:42:14;4.60;;;2.40;;
6953;SDS011;3516;47.980;8.808;2023-04-15T18:44:40;4.43;;;2.83;;
6953;SDS011;3516;47.980;8.808;2023-04-15T18:47:07;6.60;;;3.03;;
6953;SDS011;3516;47.980;8.808;2023-04-15T18:49:35;4.10;;;2.58;;
6953;SDS011;3516;47.980;8.808;2023-04-15T18:52:02;2.53;;;2.33;;
6953;SDS011;3516;47.980;8.808;2023-04-15T18:54:29;3.70;;;2.95;;
6953;SDS011;3516;47.980;8.808;2023-04-15T18:56:55;2.97;;;2.75;;
6953;SDS011;3516;47.980;8.808;2023-04-15T18:59:22;4.10;;;2.60;;
6953;SDS011;3516;47.980;8.808;2023-04-15T19:01:49;2.67;;;2.47;;
6953;SDS011;3516;47.980;8.808;2023-04-15T19:04:16;5.68;;;3.00;;
6953;SDS011;3516;47.980;8.808;2023-04-15T19:06:45;3.83;;;3.00;;
6953;SDS011;3516;47.980;8.808;2023-04-15T19:09:12;2.90;;;2.60;;
6953;SDS011;3516;47.980;8.808;2023-04-15T19:11:39;2.95;;;2.75;;
6953;SDS011;3516;47.980;8.808;2023-04-15T19:14:07;4.13;;;2.33;;
6953;SDS011;3516;47.980;8.808;2023-04-15T19:16:34;3.97;;;3.00;;
6953;SDS011;3516;47.980;8.808;2023-04-15T19:19:01;2.58;;;2.40;;
6953;SDS011;3516;47.980;8.808;2023-04-15T19:21:28;5.97;;;2.38;;
6953;SDS011;3516;47.980;8.808;2023-04-15T19:23:57;3.10;;;2.47;;
6953;SDS011;3516;47.980;8.808;2023-04-15T19:26:24;2.67;;;2.47;;
6953;SDS011;3516;47.980;8.808;2023-04-15T19:28:51;3.47;;;3.17;;
6953;SDS011;3516;47.980;8.808;2023-04-15T19:31:18;2.60;;;2.40;;
6953;SDS011;3516;47.980;8.808;2023-04-15T19:33:45;2.63;;;2.53;;
6953;SDS011;3516;47.980;8.808;2023-04-15T19:36:12;2.15;;;2.08;;
6953;SDS011;3516;47.980;8.808;2023-04-15T19:38:38;2.47;;;2.22;;
6953;SDS011;3516;47.980;8.808;2023-04-15T19:41:06;2.45;;;2.25;;
6953;SDS011;3516;47.980;8.808;2023-04-15T19:43:34;2.03;;;1.92;;
6953;SDS011;3516;47.980;8.808;2023-04-15T19:46:01;2.38;;;2.28;;
6953;SDS011;3516;47.980;8.808;2023-04-15T19:48:28;2.40;;;2.20;;
6953;SDS011;3516;47.980;8.808;2023-04-15T19:50:55;2.20;;;2.10;;
6953;SDS011;3516;47.980;8.808;2023-04-15T19:53:22;1.70;;;1.70;;
6953;SDS011;3516;47.980;8.808;2023-04-15T19:55:49;1.75;;;1.70;;
6953;SDS011;3516;47.980;8.808;2023-04-15T19:58:17;1.73;;;1.70;;
6953;SDS011;3516;47.980;8.808;2023-04-15T20:00:44;2.25;;;2.05;;
6953;SDS011;3516;47.980;8.808;2023-04-15T20:03:11;1.90;;;1.80;;
6953;SDS011;3516;47.980;8.808;2023-04-15T20:05:37;2.28;;;1.85;;
6953;SDS011;3516;47.980;8.808;2023-04-15T20:08:04;1.88;;;1.77;;
6953;SDS011;3516;47.980;8.808;2023-04-15T20:10:31;2.10;;;2.03;;
6953;SDS011;3516;47.980;8.808;2023-04-15T20:12:58;1.73;;;1.65;;
6953;SDS011;3516;47.980;8.808;2023-04-15T20:15:26;1.92;;;1.83;;
6953;SDS011;3516;47.980;8.808;2023-04-15T20:17:52;2.25;;;2.15;;
6953;SDS011;3516;47.980;8.808;2023-04-15T20:20:19;2.53;;;2.33;;
6953;SDS011;3516;47.980;8.808;2023-04-15T20:22:47;2.20;;;2.10;;
6953;SDS011;3516;47.980;8.808;2023-04-15T20:25:14;2.65;;;2.45;;
6953;SDS011;3516;47.980;8.808;2023-04-15T20:27:41;2.20;;;2.20;;
6953;SDS011;3516;47.980;8.808;2023-04-15T20:30:08;2.20;;;2.10;;
6953;SDS011;3516;47.980;8.808;2023-04-15T20:32:36;2.50;;;2.40;;
6953;SDS011;3516;47.980;8.808;2023-04-15T20:35:03;2.10;;;2.10;;
6953;SDS011;3516;47.980;8.808;2023-04-15T20:37:31;2.10;;;2.00;;
6953;SDS011;3516;47.980;8.808;2023-04-15T20:39:58;2.03;;;1.92;;
6953;SDS011;3516;47.980;8.808;2023-04-15T20:42:25;2.05;;;1.95;;
6953;SDS011;3516;47.980;8.808;2023-04-15T20:44:51;2.25;;;2.05;;
6953;SDS011;3516;47.980;8.808;2023-04-15T20:47:18;1.83;;;1.73;;
6953;SDS011;3516;47.980;8.808;2023-04-15T20:49:46;1.88;;;1.77;;
6953;SDS011;3516;47.980;8.808;2023-04-15T20:52:13;1.92;;;1.88;;
6953;SDS011;3516;47.980;8.808;2023-04-15T20:54:40;2.60;;;2.50;;
6953;SDS011;3516;47.980;8.808;2023-04-15T20:57:07;2.00;;;2.00;;
6953;SDS011;3516;47.980;8.808;2023-04-15T20:59:34;1.98;;;1.98;;
6953;SDS011;3516;47.980;8.808;2023-04-15T21:02:00;2.17;;;2.08;;
6953;SDS011;3516;47.980;8.808;2023-04-15T21:04:27;1.85;;;1.75;;
6953;SDS011;3516;47.980;8.808;2023-04-15T21:06:55;1.92;;;1.83;;
6953;SDS011;3516;47.980;8.808;2023-04-15T21:09:23;1.40;;;1.40;;